Time;durP1;ratioP1;P1;durP2;ratioP2;P2;SDS_P1;SDS_P2;PMS_P1;PMS_P2;Temp;Humidity;BMP_temperature;BMP_pressure;BME280_temperature;BME280_humidity;BME280_pressure;Samples;Min_cycle;Max_cycle;Signal;HPM_P1;HPM_P2
2022/03/27 00:00:41;;;;;;;;;76.75;63.25;15.90;29.10;;;;;;4977823;28;8759;-61
2022/03/27 00:03:07;;;;;;;;;91.00;82.75;15.20;29.20;;;;;;4977998;28;8779;-62
2022/03/27 00:05:33;;;;;;;;;81.00;69.00;15.00;29.50;;;;;;4977783;28;8852;-64
2022/03/27 00:07:59;;;;;;;;;77.00;63.75;15.20;29.40;;;;;;4977911;28;8797;-60
2022/03/27 00:10:25;;;;;;;;;76.00;63.25;15.20;29.40;;;;;;4977524;28;9425;-61
2022/03/27 00:12:51;;;;;;;;;78.00;68.50;14.90;29.90;;;;;;4977722;28;8841;-61
2022/03/27 00:15:17;;;;;;;;;83.25;66.75;15.30;29.40;;;;;;4977562;28;9402;-62
2022/03/27 00:17:43;;;;;;;;;76.25;64.00;15.30;29.30;;;;;;4977467;28;8803;-61
2022/03/27 00:20:10;;;;;;;;;74.50;59.75;15.20;29.30;;;;;;4976461;28;8833;-62
2022/03/27 00:22:37;;;;;;;;;76.00;60.00;14.30;30.50;;;;;;4974848;28;8766;-61
2022/03/27 00:25:05;;;;;;;;;74.25;58.00;14.70;30.30;;;;;;4977317;28;8873;-62
2022/03/27 00:27:31;;;;;;;;;76.25;64.25;14.70;30.30;;;;;;4977750;28;8865;-63
2022/03/27 00:29:58;;;;;;;;;78.25;66.75;14.90;30.00;;;;;;4977994;28;8865;-62
2022/03/27 00:32:24;;;;;;;;;80.00;67.50;15.10;30.80;;;;;;4977996;28;9450;-62
2022/03/27 00:34:50;;;;;;;;;73.00;57.00;14.90;29.90;;;;;;4977902;28;8790;-62
2022/03/27 00:37:17;;;;;;;;;80.00;65.25;15.00;29.90;;;;;;4977657;28;8774;-59
2022/03/27 00:39:43;;;;;;;;;80.75;66.50;15.40;29.70;;;;;;4977510;28;8849;-63
2022/03/27 00:42:09;;;;;;;;;80.50;64.25;15.00;29.90;;;;;;4977570;28;8789;-62
2022/03/27 00:44:38;;;;;;;;;78.25;62.75;14.60;30.50;;;;;;4977693;28;9455;-63
2022/03/27 00:47:05;;;;;;;;;72.00;59.00;14.90;30.30;;;;;;4960328;28;8810;-62
2022/03/27 00:49:35;;;;;;;;;80.25;64.00;14.00;31.30;;;;;;4977298;28;8790;-61
2022/03/27 00:52:01;;;;;;;;;82.75;66.50;13.70;32.60;;;;;;4977339;28;8848;-62
2022/03/27 00:54:28;;;;;;;;;82.00;73.25;14.20;31.70;;;;;;4977579;28;8884;-62
2022/03/27 00:56:53;;;;;;;;;79.75;67.00;14.20;31.40;;;;;;4977454;28;8774;-63
2022/03/27 00:59:19;;;;;;;;;72.75;58.50;14.40;31.40;;;;;;4977319;28;8825;-63
2022/03/27 01:01:45;;;;;;;;;74.00;58.75;14.30;30.70;;;;;;4977320;28;8795;-63
2022/03/27 01:04:12;;;;;;;;;76.00;60.00;14.60;30.40;;;;;;4977358;28;8877;-61
2022/03/27 01:06:43;;;;;;;;;78.50;63.50;13.90;31.40;;;;;;4977119;28;8759;-61
2022/03/27 01:12:27;;;;;;;;;76.00;60.75;13.40;32.70;;;;;;4977011;28;8762;-62
2022/03/27 01:14:54;;;;;;;;;78.00;61.50;13.80;32.20;;;;;;4966577;28;9417;-59
2022/03/27 01:17:23;;;;;;;;;71.00;58.25;13.70;32.40;;;;;;4976971;28;8864;-61
2022/03/27 01:19:52;;;;;;;;;66.75;53.75;13.40;32.90;;;;;;4976880;28;8789;-61
2022/03/27 01:22:19;;;;;;;;;66.75;52.50;13.70;32.40;;;;;;4976729;28;8767;-61
2022/03/27 01:24:47;;;;;;;;;65.00;52.75;13.50;32.40;;;;;;4976710;28;8798;-61
2022/03/27 01:27:13;;;;;;;;;70.00;56.00;13.00;33.90;;;;;;4976613;28;8770;-61
2022/03/27 01:29:39;;;;;;;;;67.00;54.00;13.30;33.40;;;;;;4976586;28;8762;-61
2022/03/27 01:32:07;;;;;;;;;67.25;55.00;13.70;32.80;;;;;;4976352;28;8946;-61
2022/03/27 01:34:34;;;;;;;;;58.00;49.00;14.00;32.50;;;;;;4976819;28;8790;-61
2022/03/27 01:37:17;;;;;;;;;65.00;52.25;14.00;32.40;;;;;;4976472;28;8759;-61
2022/03/27 01:39:44;;;;;;;;;75.50;60.00;14.00;32.10;;;;;;4976297;28;8809;-61
2022/03/27 01:42:10;;;;;;;;;73.50;58.00;14.10;32.10;;;;;;4976404;28;8770;-62
2022/03/27 01:44:36;;;;;;;;;71.00;57.00;14.40;31.60;;;;;;4976617;28;8778;-64
2022/03/27 01:47:02;;;;;;;;;70.75;54.25;13.90;32.00;;;;;;4976292;28;9540;-62
2022/03/27 01:49:28;;;;;;;;;66.00;53.75;14.00;32.20;;;;;;4976271;28;8783;-62
2022/03/27 01:51:54;;;;;;;;;71.75;55.75;14.30;31.70;;;;;;4976162;28;9475;-61
2022/03/27 01:54:22;;;;;;;;;69.75;55.75;14.30;31.80;;;;;;4976136;28;8876;-61
2022/03/27 01:56:48;;;;;;;;;60.75;50.75;14.00;32.60;;;;;;4976159;28;8782;-63
2022/03/27 01:59:14;;;;;;;;;61.50;51.00;14.40;32.20;;;;;;4976318;28;8786;-62
2022/03/27 02:01:40;;;;;;;;;63.75;50.50;13.90;32.00;;;;;;4976389;28;9441;-62
2022/03/27 02:04:07;;;;;;;;;70.50;56.50;14.00;32.80;;;;;;4976334;28;8790;-63
2022/03/27 02:06:37;;;;;;;;;63.75;53.50;14.10;32.10;;;;;;4976310;28;8771;-62
2022/03/27 02:09:03;;;;;;;;;63.00;50.00;14.10;32.20;;;;;;4976266;28;8762;-61
2022/03/27 02:11:29;;;;;;;;;70.50;55.00;14.20;32.40;;;;;;4976038;28;8735;-61
2022/03/27 02:13:55;;;;;;;;;63.25;51.25;14.30;32.80;;;;;;4976145;28;8793;-60
2022/03/27 02:16:21;;;;;;;;;65.00;51.50;14.20;31.70;;;;;;4976112;28;8845;-61
2022/03/27 02:18:47;;;;;;;;;66.00;54.00;14.40;31.50;;;;;;4975742;28;8850;-61
2022/03/27 02:21:13;;;;;;;;;67.00;53.25;13.80;32.30;;;;;;4975820;28;8766;-60
2022/03/27 02:23:39;;;;;;;;;64.50;51.75;14.00;32.40;;;;;;4975795;28;8755;-61
2022/03/27 02:26:08;;;;;;;;;64.50;52.75;14.30;31.80;;;;;;4975753;28;8901;-61
2022/03/27 02:28:33;;;;;;;;;54.00;45.00;14.20;31.40;;;;;;4975948;28;8770;-60
2022/03/27 02:30:59;;;;;;;;;44.75;40.25;12.90;33.50;;;;;;4975724;28;8774;-60
2022/03/27 02:33:25;;;;;;;;;61.75;48.75;12.70;33.80;;;;;;4975873;28;8779;-60
2022/03/27 02:35:51;;;;;;;;;62.75;51.00;12.70;34.30;;;;;;4975867;28;9500;-60
2022/03/27 02:38:17;;;;;;;;;67.50;54.00;13.10;33.60;;;;;;4975534;28;8877;-60
2022/03/27 02:40:44;;;;;;;;;54.00;45.00;13.20;33.30;;;;;;4975831;28;8855;-60
2022/03/27 02:43:09;;;;;;;;;60.25;48.00;12.80;33.90;;;;;;4974862;28;8840;-60
2022/03/27 02:45:36;;;;;;;;;64.00;53.00;12.40;34.70;;;;;;4975768;28;8771;-62
2022/03/27 02:48:01;;;;;;;;;61.50;47.25;12.00;35.80;;;;;;4966854;28;9534;-60
2022/03/27 02:50:30;;;;;;;;;63.50;52.25;12.00;35.70;;;;;;4967391;28;8770;-62
2022/03/27 02:52:56;;;;;;;;;67.25;53.75;12.20;36.40;;;;;;4958729;28;8757;-60
2022/03/27 02:55:24;;;;;;;;;65.00;51.25;12.60;34.90;;;;;;4956330;29;8752;-62
2022/03/27 02:57:51;;;;;;;;;57.50;46.75;12.80;34.30;;;;;;4956013;29;8804;-61
2022/03/27 03:00:17;;;;;;;;;56.50;46.50;13.20;33.70;;;;;;4956066;29;8788;-60
2022/03/27 03:02:43;;;;;;;;;57.75;46.00;13.20;33.50;;;;;;4956586;29;8781;-60
2022/03/27 03:05:09;;;;;;;;;57.75;49.00;12.60;34.30;;;;;;4956082;29;9569;-61
2022/03/27 03:07:38;;;;;;;;;57.50;46.25;12.40;34.90;;;;;;4955953;29;8819;-61
2022/03/27 03:10:04;;;;;;;;;52.50;44.25;12.60;34.90;;;;;;4956251;29;8781;-61
2022/03/27 03:12:30;;;;;;;;;56.00;47.00;12.90;34.30;;;;;;4956235;29;8757;-61
2022/03/27 03:14:56;;;;;;;;;55.25;44.75;12.50;35.30;;;;;;4955899;29;8772;-60
2022/03/27 03:17:28;;;;;;;;;60.00;48.00;12.70;35.70;;;;;;4956148;29;8761;-60
2022/03/27 03:19:54;;;;;;;;;58.25;47.50;12.50;34.80;;;;;;4955944;29;8804;-61
2022/03/27 03:22:20;;;;;;;;;57.75;47.75;11.90;36.20;;;;;;4955800;29;8796;-60
2022/03/27 03:24:46;;;;;;;;;55.50;46.25;11.70;36.90;;;;;;4955853;29;8903;-61
2022/03/27 03:27:13;;;;;;;;;50.00;42.75;11.40;37.70;;;;;;4956159;29;8769;-59
2022/03/27 03:29:39;;;;;;;;;56.75;45.00;11.20;38.50;;;;;;4955889;29;8761;-63
2022/03/27 03:32:05;;;;;;;;;48.25;41.25;11.80;38.30;;;;;;4956249;29;8868;-61
2022/03/27 03:34:30;;;;;;;;;52.00;43.00;11.50;37.50;;;;;;4955783;29;8780;-61
2022/03/27 03:36:56;;;;;;;;;50.00;42.00;11.30;38.00;;;;;;4955992;28;8773;-61
2022/03/27 03:39:22;;;;;;;;;57.25;47.00;11.60;37.40;;;;;;4955487;29;8816;-60
2022/03/27 03:41:48;;;;;;;;;52.50;43.75;11.60;37.40;;;;;;4955739;29;8772;-62
2022/03/27 03:44:14;;;;;;;;;39.75;38.50;11.90;36.70;;;;;;4955976;29;8784;-61
2022/03/27 03:46:40;;;;;;;;;55.75;47.00;12.30;35.70;;;;;;4955703;29;8773;-62
2022/03/27 03:49:06;;;;;;;;;58.00;47.25;12.60;34.90;;;;;;4955627;29;8796;-63
2022/03/27 03:51:36;;;;;;;;;58.25;47.00;12.90;34.50;;;;;;4955619;29;8772;-61
2022/03/27 03:54:07;;;;;;;;;57.25;45.75;12.70;35.00;;;;;;4956060;28;8788;-63
2022/03/27 03:56:34;;;;;;;;;53.00;45.50;12.60;35.00;;;;;;4959371;28;8764;-62
2022/03/27 03:59:00;;;;;;;;;56.00;47.00;12.40;35.40;;;;;;4959004;28;8784;-63
2022/03/27 04:01:25;;;;;;;;;57.00;46.00;12.60;34.90;;;;;;4959073;28;8827;-61
2022/03/27 04:03:52;;;;;;;;;58.00;48.00;12.20;35.30;;;;;;4958952;28;9444;-61
2022/03/27 04:06:17;;;;;;;;;58.50;48.50;12.40;35.50;;;;;;4959234;28;8749;-61
2022/03/27 04:08:43;;;;;;;;;59.25;48.25;12.60;35.00;;;;;;4958775;28;8761;-61
2022/03/27 04:11:16;;;;;;;;;56.25;45.50;12.20;35.70;;;;;;4958712;28;8855;-61
2022/03/27 04:13:43;;;;;;;;;59.00;48.50;12.00;36.70;;;;;;4958744;28;8768;-61
2022/03/27 04:16:10;;;;;;;;;51.25;42.25;12.30;35.70;;;;;;4958930;28;8773;-61
2022/03/27 04:18:35;;;;;;;;;56.00;45.00;12.60;35.50;;;;;;4958609;28;8828;-61
2022/03/27 04:21:01;;;;;;;;;58.25;48.75;12.50;35.10;;;;;;4958634;28;8800;-61
2022/03/27 04:23:27;;;;;;;;;56.50;45.50;13.00;34.40;;;;;;4958529;28;8788;-61
2022/03/27 04:25:53;;;;;;;;;54.25;45.25;13.10;34.10;;;;;;4958797;28;9443;-60
2022/03/27 04:28:19;;;;;;;;;56.75;47.50;12.80;34.50;;;;;;4958482;28;8785;-61
2022/03/27 04:30:45;;;;;;;;;52.00;44.00;12.80;34.80;;;;;;4958555;28;8785;-61
2022/03/27 04:33:11;;;;;;;;;53.25;44.50;12.40;35.40;;;;;;4958378;28;8769;-60
2022/03/27 04:35:37;;;;;;;;;49.50;43.00;12.20;35.60;;;;;;4958402;28;8997;-60
2022/03/27 04:38:03;;;;;;;;;59.25;47.00;12.20;35.60;;;;;;4958179;28;8819;-61
2022/03/27 04:40:29;;;;;;;;;53.25;44.25;12.40;35.40;;;;;;4958541;28;8768;-60
2022/03/27 04:42:55;;;;;;;;;38.75;37.00;12.30;35.30;;;;;;4958234;28;8789;-60
2022/03/27 04:45:21;;;;;;;;;46.50;42.00;12.40;34.50;;;;;;4958179;28;8765;-61
2022/03/27 04:47:47;;;;;;;;;53.00;43.00;13.00;33.70;;;;;;4958084;28;8801;-61
2022/03/27 04:50:13;;;;;;;;;54.75;46.25;13.00;33.30;;;;;;4956385;28;8768;-61
2022/03/27 04:52:38;;;;;;;;;53.00;44.00;12.40;34.00;;;;;;4958114;28;8788;-61
2022/03/27 04:55:07;;;;;;;;;55.00;44.75;12.30;35.00;;;;;;4957983;28;8777;-61
2022/03/27 04:57:34;;;;;;;;;52.75;44.00;12.60;34.70;;;;;;4957897;28;8796;-61
2022/03/27 05:00:01;;;;;;;;;52.50;44.50;12.60;34.30;;;;;;4957957;28;8781;-60
2022/03/27 05:02:27;;;;;;;;;51.75;41.50;12.50;34.50;;;;;;4958148;28;8780;-61
2022/03/27 05:04:53;;;;;;;;;53.50;45.25;12.50;34.40;;;;;;4957776;28;8768;-60
2022/03/27 05:07:19;;;;;;;;;56.00;44.75;12.70;33.90;;;;;;4957163;28;8798;-62
2022/03/27 05:09:45;;;;;;;;;58.50;47.00;13.00;33.70;;;;;;4957646;28;8777;-60
2022/03/27 05:12:11;;;;;;;;;49.50;42.00;12.40;35.10;;;;;;4957553;28;8820;-61
2022/03/27 05:14:37;;;;;;;;;51.25;43.00;12.10;35.20;;;;;;4957690;28;8765;-61
2022/03/27 05:17:04;;;;;;;;;49.75;43.00;12.00;35.70;;;;;;4957794;28;8864;-61
2022/03/27 05:19:30;;;;;;;;;49.25;42.00;12.20;35.30;;;;;;4957752;28;8804;-61
2022/03/27 05:21:56;;;;;;;;;57.25;47.00;12.10;34.80;;;;;;4957695;28;8846;-62
2022/03/27 05:24:21;;;;;;;;;54.25;43.25;11.80;36.00;;;;;;4957658;28;8772;-62
2022/03/27 05:26:47;;;;;;;;;59.75;48.75;11.80;35.40;;;;;;4957660;28;8772;-62
2022/03/27 05:29:13;;;;;;;;;56.00;46.00;11.60;36.10;;;;;;4957325;28;8781;-61
2022/03/27 05:31:40;;;;;;;;;57.00;45.25;11.50;37.00;;;;;;4957398;28;8828;-61
2022/03/27 05:34:07;;;;;;;;;59.00;46.50;11.90;36.50;;;;;;4957222;28;8955;-62
2022/03/27 05:36:33;;;;;;;;;56.50;47.25;11.70;36.00;;;;;;4957468;28;8891;-61
2022/03/27 05:38:59;;;;;;;;;61.50;48.50;12.00;35.70;;;;;;4963489;28;8826;-61
2022/03/27 05:41:24;;;;;;;;;59.75;49.25;12.30;35.10;;;;;;4962901;28;8795;-63
2022/03/27 05:43:50;;;;;;;;;58.25;47.00;12.10;35.50;;;;;;4963189;28;8796;-61
2022/03/27 05:46:16;;;;;;;;;44.00;40.25;11.90;35.80;;;;;;4940141;28;8764;-60
2022/03/27 05:48:42;;;;;;;;;61.50;50.25;12.00;35.80;;;;;;4957235;28;8810;-61
2022/03/27 05:51:07;;;;;;;;;56.00;46.25;12.00;35.70;;;;;;4957068;28;8793;-62
2022/03/27 05:53:33;;;;;;;;;60.50;49.50;12.10;35.60;;;;;;4957148;28;8773;-61
2022/03/27 05:55:59;;;;;;;;;58.00;49.25;12.00;35.90;;;;;;4961545;28;9434;-61
2022/03/27 05:58:25;;;;;;;;;57.00;46.75;12.10;36.00;;;;;;4973803;28;8864;-61
2022/03/27 06:00:52;;;;;;;;;62.50;51.50;11.80;36.60;;;;;;4963555;28;8771;-61
2022/03/27 06:03:18;;;;;;;;;61.75;50.50;11.80;36.90;;;;;;4976178;28;8790;-61
2022/03/27 06:05:44;;;;;;;;;55.50;46.00;12.00;36.60;;;;;;4976338;28;8763;-61
2022/03/27 06:08:09;;;;;;;;;53.25;45.00;12.00;36.60;;;;;;4976272;28;8759;-61
2022/03/27 06:10:38;;;;;;;;;60.00;47.25;11.90;36.90;;;;;;4975985;28;8806;-61
2022/03/27 06:13:04;;;;;;;;;56.50;46.75;12.00;37.00;;;;;;4975909;28;8794;-60
2022/03/27 06:15:32;;;;;;;;;56.25;47.25;12.20;36.80;;;;;;4975947;28;8780;-61
2022/03/27 06:17:58;;;;;;;;;54.50;45.75;12.40;36.60;;;;;;4975097;28;8810;-62
2022/03/27 06:20:29;;;;;;;;;61.00;49.00;12.60;36.30;;;;;;4965962;28;8768;-60
2022/03/27 06:22:56;;;;;;;;;52.50;44.00;12.60;36.50;;;;;;4968730;28;8797;-61
2022/03/27 06:25:25;;;;;;;;;59.25;49.50;12.80;36.20;;;;;;4956606;28;8761;-61
2022/03/27 06:27:52;;;;;;;;;56.75;48.00;12.80;36.40;;;;;;4956379;28;8791;-62
2022/03/27 06:30:20;;;;;;;;;65.75;52.25;13.10;36.20;;;;;;4956667;28;8879;-61
2022/03/27 06:32:47;;;;;;;;;59.00;48.75;13.20;35.90;;;;;;4956457;28;8816;-60
2022/03/27 06:35:15;;;;;;;;;66.75;54.00;13.40;35.80;;;;;;4964785;28;8793;-61
2022/03/27 06:37:41;;;;;;;;;55.25;46.25;13.60;35.40;;;;;;4972461;28;8860;-60
2022/03/27 06:40:09;;;;;;;;;60.00;49.75;13.60;35.50;;;;;;4963535;28;8832;-60
2022/03/27 06:42:35;;;;;;;;;60.25;49.00;13.30;36.00;;;;;;4956448;28;8780;-60
2022/03/27 06:45:02;;;;;;;;;56.50;47.00;13.50;36.00;;;;;;4956668;28;8773;-60
2022/03/27 06:47:29;;;;;;;;;55.00;45.25;13.80;35.40;;;;;;4966516;28;8803;-60
2022/03/27 06:49:57;;;;;;;;;57.75;47.25;14.10;35.00;;;;;;4956447;29;8772;-60
2022/03/27 06:52:25;;;;;;;;;59.00;48.50;13.90;35.60;;;;;;4956385;29;8796;-60
2022/03/27 06:54:51;;;;;;;;;60.50;50.00;13.90;35.70;;;;;;4956041;29;8788;-60
2022/03/27 06:57:17;;;;;;;;;60.25;48.50;14.50;34.90;;;;;;4961031;28;8896;-59
2022/03/27 07:05:13;;;;;;;;;58.50;48.75;14.60;33.60;;;;;;4969175;28;8766;-61
2022/03/27 07:07:39;;;;;;;;;62.25;50.00;15.00;32.90;;;;;;4971420;28;8834;-62
2022/03/27 07:10:05;;;;;;;;;56.00;45.25;15.00;32.70;;;;;;4974504;28;8803;-59
2022/03/27 07:12:31;;;;;;;;;54.25;44.00;15.10;32.50;;;;;;4961785;28;8798;-59
2022/03/27 07:14:57;;;;;;;;;63.50;52.25;15.50;32.10;;;;;;4975201;28;8786;-58
2022/03/27 07:17:23;;;;;;;;;59.25;48.00;15.70;31.40;;;;;;4974786;28;8842;-57
2022/03/27 07:19:49;;;;;;;;;61.00;47.75;15.80;31.50;;;;;;4974796;28;8763;-55
2022/03/27 07:22:16;;;;;;;;;57.25;48.00;15.40;31.40;;;;;;4974829;28;8775;-58
2022/03/27 07:24:42;;;;;;;;;52.25;43.25;15.10;32.10;;;;;;4974723;28;9751;-55
2022/03/27 07:27:08;;;;;;;;;53.50;43.25;15.20;32.00;;;;;;4974741;28;8778;-59
2022/03/27 07:29:37;;;;;;;;;56.25;46.50;15.20;31.80;;;;;;4975876;28;8775;-59
2022/03/27 07:32:05;;;;;;;;;53.25;44.00;15.40;31.50;;;;;;4978422;28;8893;-58
2022/03/27 07:34:31;;;;;;;;;58.75;49.00;15.00;32.70;;;;;;4978340;28;8739;-58
2022/03/27 07:36:57;;;;;;;;;60.25;47.75;15.00;33.40;;;;;;4978416;28;8774;-58
2022/03/27 07:39:23;;;;;;;;;60.25;48.00;14.90;34.00;;;;;;4978045;28;8799;-58
2022/03/27 07:41:48;;;;;;;;;51.50;44.50;15.40;34.20;;;;;;4978817;28;8766;-59
2022/03/27 07:44:15;;;;;;;;;52.25;43.25;15.70;32.50;;;;;;4961449;28;9429;-59
2022/03/27 07:46:40;;;;;;;;;55.75;46.00;15.40;32.60;;;;;;4978513;28;8774;-57
2022/03/27 07:49:07;;;;;;;;;62.00;52.00;15.90;32.40;;;;;;4978904;28;8793;-60
2022/03/27 07:51:34;;;;;;;;;58.25;47.75;15.80;32.40;;;;;;4978498;28;8775;-58
2022/03/27 07:54:03;;;;;;;;;60.00;47.25;15.90;32.80;;;;;;4978407;28;8793;-57
2022/03/27 07:56:32;;;;;;;;;53.25;46.00;16.20;32.10;;;;;;4978386;28;8766;-58
2022/03/27 07:58:58;;;;;;;;;58.75;47.50;15.60;32.50;;;;;;4978131;28;8806;-56
2022/03/27 08:01:24;;;;;;;;;60.50;47.00;15.50;33.20;;;;;;4978162;28;8832;-58
2022/03/27 08:03:50;;;;;;;;;55.00;46.50;15.80;33.10;;;;;;4978188;28;8771;-58
2022/03/27 08:06:16;;;;;;;;;55.25;43.75;16.20;32.30;;;;;;4978411;28;9482;-56
2022/03/27 08:08:42;;;;;;;;;52.00;43.25;16.00;32.20;;;;;;4978354;28;8868;-59
2022/03/27 08:11:10;;;;;;;;;54.50;43.25;15.80;32.60;;;;;;4978080;28;9426;-58
2022/03/27 08:13:36;;;;;;;;;58.25;47.75;15.90;32.10;;;;;;4960786;28;9470;-59
2022/03/27 08:16:01;;;;;;;;;60.00;48.25;16.20;31.90;;;;;;4977702;28;8789;-59
2022/03/27 08:18:27;;;;;;;;;51.00;43.00;16.00;32.50;;;;;;4977819;28;8814;-58
2022/03/27 08:20:53;;;;;;;;;53.25;43.25;15.90;32.00;;;;;;4978073;28;8786;-59
2022/03/27 08:23:19;;;;;;;;;55.50;44.00;16.50;31.20;;;;;;4977980;28;8759;-59
2022/03/27 08:28:29;;;;;;;;;56.75;45.50;17.00;30.90;;;;;;4977526;28;8774;-58
2022/03/27 08:30:55;;;;;;;;;54.50;44.00;17.20;31.00;;;;;;4976997;28;8857;-59
2022/03/27 08:33:21;;;;;;;;;54.00;44.00;17.20;30.90;;;;;;4977100;28;8771;-59
2022/03/27 08:35:47;;;;;;;;;50.25;41.50;17.50;30.20;;;;;;4977136;28;8867;-60
2022/03/27 08:38:15;;;;;;;;;49.25;39.00;17.60;29.80;;;;;;4977089;28;8904;-60
2022/03/27 08:40:42;;;;;;;;;56.00;45.50;17.40;29.40;;;;;;4976871;28;8805;-60
2022/03/27 08:43:12;;;;;;;;;55.50;45.50;17.50;29.40;;;;;;4977700;28;8789;-69
2022/03/27 08:45:38;;;;;;;;;52.25;41.00;17.20;30.50;;;;;;4977402;28;8864;-68
2022/03/27 08:48:05;;;;;;;;;51.25;41.50;17.00;30.10;;;;;;4977648;28;9437;-67
2022/03/27 08:50:49;;;;;;;;;49.50;41.75;17.10;29.90;;;;;;4977630;28;8864;-64
2022/03/27 08:53:28;;;;;;;;;50.50;43.00;17.00;31.60;;;;;;4977452;28;8747;-65
2022/03/27 08:56:07;;;;;;;;;53.50;43.00;16.80;32.70;;;;;;4977352;28;8789;-65
2022/03/27 08:58:40;;;;;;;;;50.50;41.25;17.60;32.50;;;;;;4977211;28;8848;-65
2022/03/27 09:01:07;;;;;;;;;55.25;44.25;17.60;31.50;;;;;;4960443;28;8804;-67
2022/03/27 09:03:33;;;;;;;;;54.75;44.75;17.80;30.30;;;;;;4957740;28;8811;-65
2022/03/27 09:06:01;;;;;;;;;48.75;40.00;17.90;30.40;;;;;;4957843;28;8791;-65
2022/03/27 09:08:29;;;;;;;;;54.25;44.00;18.00;31.40;;;;;;4961629;28;8771;-66
2022/03/27 09:10:56;;;;;;;;;52.75;43.00;17.80;31.60;;;;;;4976054;28;8869;-66
2022/03/27 09:13:22;;;;;;;;;52.25;42.00;18.30;31.20;;;;;;4975437;28;8862;-63
2022/03/27 09:15:59;;;;;;;;;51.75;44.00;18.30;30.20;;;;;;4975332;28;8825;-63
2022/03/27 09:18:25;;;;;;;;;48.75;40.50;18.40;30.40;;;;;;4973508;28;8806;-63
2022/03/27 09:20:52;;;;;;;;;48.50;41.75;18.70;30.60;;;;;;4976055;28;8778;-63
2022/03/27 09:23:35;;;;;;;;;48.50;40.25;18.80;29.70;;;;;;4976027;28;8766;-64
2022/03/27 09:26:16;;;;;;;;;46.50;39.25;18.50;30.20;;;;;;4973041;28;8865;-63
2022/03/27 09:28:47;;;;;;;;;53.75;42.00;18.50;30.40;;;;;;4955949;28;8856;-63
2022/03/27 09:31:13;;;;;;;;;53.75;44.00;18.60;30.60;;;;;;4974986;28;8790;-67
2022/03/27 09:34:00;;;;;;;;;49.00;41.00;18.20;31.60;;;;;;4975262;28;8785;-66
2022/03/27 09:36:33;;;;;;;;;47.25;39.50;18.60;30.70;;;;;;4973380;28;8886;-66
2022/03/27 09:39:13;;;;;;;;;50.50;41.50;19.00;30.10;;;;;;4975059;28;8795;-68
2022/03/27 09:41:48;;;;;;;;;48.50;41.50;19.20;29.90;;;;;;4974981;28;8751;-69
2022/03/27 09:44:17;;;;;;;;;34.75;32.50;18.90;30.40;;;;;;4974770;28;8845;-68
2022/03/27 09:46:57;;;;;;;;;45.75;39.25;18.90;30.10;;;;;;4972847;28;8770;-69
2022/03/27 09:49:35;;;;;;;;;45.25;38.75;19.10;30.10;;;;;;4972948;28;9571;-69
2022/03/27 09:52:10;;;;;;;;;48.75;41.50;19.20;30.00;;;;;;4972216;28;8770;-67
2022/03/27 09:54:55;;;;;;;;;47.25;40.25;19.10;30.00;;;;;;4974877;28;8921;-67
2022/03/27 09:57:23;;;;;;;;;49.75;41.50;18.80;30.50;;;;;;4972407;28;8882;-66
2022/03/27 09:59:50;;;;;;;;;40.00;33.75;18.90;30.40;;;;;;4974829;28;8802;-66
2022/03/27 10:02:20;;;;;;;;;44.50;37.25;18.70;30.90;;;;;;4976433;28;8848;-67
2022/03/27 10:04:55;;;;;;;;;44.25;36.00;19.20;32.20;;;;;;4976030;28;8794;-66
2022/03/27 10:07:24;;;;;;;;;46.50;37.75;19.30;32.20;;;;;;4976014;28;8734;-65
2022/03/27 10:09:51;;;;;;;;;53.00;42.50;19.20;30.40;;;;;;4975897;28;8793;-67
2022/03/27 10:12:17;;;;;;;;;41.50;34.50;19.00;30.50;;;;;;4976289;28;9453;-66
2022/03/27 10:14:47;;;;;;;;;46.00;39.00;19.00;31.40;;;;;;4975364;28;8767;-66
2022/03/27 10:17:14;;;;;;;;;33.67;32.67;19.10;30.60;;;;;;4975815;28;8797;-68
2022/03/27 10:20:08;;;;;;;;;47.25;40.50;19.10;30.10;;;;;;4975763;28;8814;-74
2022/03/27 10:22:42;;;;;;;;;41.67;35.33;19.30;30.10;;;;;;4972981;28;8774;-71
2022/03/27 10:25:09;;;;;;;;;47.00;37.33;19.60;29.70;;;;;;4976084;28;8790;-66
2022/03/27 10:27:37;;;;;;;;;43.67;37.33;20.30;29.80;;;;;;4975582;28;8818;-66
2022/03/27 10:30:05;;;;;;;;;46.00;38.33;20.40;29.10;;;;;;4975238;28;8778;-64
2022/03/27 10:32:32;;;;;;;;;44.33;37.67;20.50;29.00;;;;;;4975568;28;8833;-67
2022/03/27 10:35:17;;;;;;;;;41.67;36.67;20.60;30.00;;;;;;4975753;28;8805;-67
2022/03/27 10:38:13;;;;;;;;;45.00;37.00;21.10;28.20;;;;;;4975779;28;8913;-66
2022/03/27 10:41:21;;;;;;;;;44.33;36.00;20.60;28.30;;;;;;4975525;28;8857;-67
2022/03/27 10:44:05;;;;;;;;;36.67;33.00;20.70;29.10;;;;;;4930877;28;8786;-66
2022/03/27 10:46:30;;;;;;;;;34.00;32.33;20.60;28.40;;;;;;4975491;28;8851;-65
2022/03/27 10:49:16;;;;;;;;;37.00;32.33;20.80;29.10;;;;;;4975448;28;8801;-64
2022/03/27 10:51:44;;;;;;;;;42.67;36.67;21.30;29.00;;;;;;4958263;28;8786;-64
2022/03/27 10:54:18;;;;;;;;;46.33;36.67;21.60;27.90;;;;;;4975594;28;8963;-65
2022/03/27 10:56:50;;;;;;;;;34.00;31.67;21.80;27.80;;;;;;4975641;28;8782;-64
2022/03/27 10:59:23;;;;;;;;;46.00;39.00;21.60;27.60;;;;;;4975172;28;8818;-65
2022/03/27 11:01:58;;;;;;;;;39.67;34.33;21.90;29.10;;;;;;4975263;28;8932;-63
2022/03/27 11:04:38;;;;;;;;;39.67;35.00;21.70;27.20;;;;;;4974718;28;8775;-64
2022/03/27 11:07:16;;;;;;;;;35.67;32.67;21.80;27.30;;;;;;4979268;28;8908;-63
2022/03/27 11:09:46;;;;;;;;;45.33;36.67;21.80;27.20;;;;;;4979164;28;8936;-64
2022/03/27 11:12:32;;;;;;;;;40.00;36.00;22.00;27.00;;;;;;4979185;28;9402;-64
2022/03/27 11:14:59;;;;;;;;;40.67;31.67;22.10;26.80;;;;;;4979070;28;8770;-64
2022/03/27 11:17:31;;;;;;;;;38.33;33.67;22.10;26.70;;;;;;4979061;28;8778;-64
2022/03/27 11:19:58;;;;;;;;;26.67;25.33;22.60;27.60;;;;;;4978868;28;8775;-64
2022/03/27 11:22:56;;;;;;;;;31.67;30.33;22.60;26.30;;;;;;4978965;28;8751;-64
2022/03/27 11:25:37;;;;;;;;;33.67;32.00;22.90;26.20;;;;;;4978887;28;8857;-64
2022/03/27 11:28:07;;;;;;;;;30.00;29.67;23.10;26.20;;;;;;4978722;28;8864;-65
2022/03/27 11:30:40;;;;;;;;;31.00;30.67;23.20;26.50;;;;;;4978807;28;8758;-64
2022/03/27 11:33:30;;;;;;;;;28.33;28.33;23.60;25.40;;;;;;4979064;28;8843;-64
2022/03/27 11:36:02;;;;;;;;;24.33;22.33;23.10;26.60;;;;;;4978539;28;8806;-64
2022/03/27 11:38:53;;;;;;;;;28.00;26.67;23.20;26.60;;;;;;4978363;28;8830;-64
2022/03/27 11:41:49;;;;;;;;;28.67;26.33;22.80;27.00;;;;;;4978488;28;8770;-64
2022/03/27 11:44:22;;;;;;;;;29.33;26.67;23.50;25.60;;;;;;4974012;28;8782;-64
2022/03/27 11:46:56;;;;;;;;;23.33;23.33;23.70;26.20;;;;;;4978591;28;8755;-64
2022/03/27 11:49:36;;;;;;;;;25.67;24.00;23.30;26.50;;;;;;4978702;28;9481;-64
2022/03/27 11:52:07;;;;;;;;;25.00;24.33;23.50;27.00;;;;;;4978490;28;8868;-64
2022/03/27 11:54:34;;;;;;;;;30.00;28.33;23.70;26.20;;;;;;4978288;28;8763;-64
2022/03/27 11:57:01;;;;;;;;;23.33;23.00;24.50;25.60;;;;;;4978360;28;8771;-64
2022/03/27 11:59:27;;;;;;;;;24.00;23.00;25.20;25.60;;;;;;4978208;28;8840;-64
2022/03/27 12:01:55;;;;;;;;;22.33;22.33;26.00;24.90;;;;;;4978244;28;11471;-64
2022/03/27 12:04:21;;;;;;;;;18.33;18.33;26.80;23.90;;;;;;4978365;28;11492;-64
2022/03/27 12:06:57;;;;;;;;;24.67;24.67;27.50;22.90;;;;;;4978043;28;11431;-63
2022/03/27 12:09:28;;;;;;;;;22.33;22.33;28.40;22.00;;;;;;4978166;28;8795;-63
2022/03/27 12:12:04;;;;;;;;;22.33;22.33;28.70;21.70;;;;;;4978161;28;11466;-64
2022/03/27 12:14:31;;;;;;;;;19.33;19.33;29.00;21.70;;;;;;4977859;28;11554;-64
2022/03/27 12:16:56;;;;;;;;;15.50;15.50;28.80;21.60;;;;;;4978003;28;11436;-64
2022/03/27 12:19:22;;;;;;;;;17.00;17.00;29.30;21.50;;;;;;4977784;28;12163;-63
2022/03/27 12:21:48;;;;;;;;;17.25;17.25;28.50;22.40;;;;;;4977843;28;8774;-64
2022/03/27 12:24:16;;;;;;;;;19.33;19.33;27.70;22.10;;;;;;4977809;28;8770;-63
2022/03/27 12:29:43;;;;;;;;;18.00;18.00;26.50;23.90;;;;;;4977726;28;11422;-64
2022/03/27 12:32:13;;;;;;;;;14.25;14.25;26.70;23.80;;;;;;4977866;28;11486;-63
2022/03/27 12:34:46;;;;;;;;;13.00;13.00;27.20;22.50;;;;;;4977686;28;11431;-63
2022/03/27 12:37:33;;;;;;;;;16.75;16.75;28.60;21.90;;;;;;4977927;28;11467;-63
2022/03/27 12:40:03;;;;;;;;;15.50;15.50;30.30;22.30;;;;;;4977258;28;11581;-64
2022/03/27 12:42:37;;;;;;;;;10.50;10.50;30.30;21.20;;;;;;4977468;28;11440;-63
2022/03/27 12:45:09;;;;;;;;;11.25;11.25;30.30;20.70;;;;;;4960321;28;11636;-64
2022/03/27 12:47:41;;;;;;;;;9.75;9.75;29.80;21.30;;;;;;4977295;28;11406;-64
2022/03/27 12:50:11;;;;;;;;;16.00;16.00;30.20;20.90;;;;;;4977316;28;11439;-63
2022/03/27 12:52:52;;;;;;;;;13.50;13.50;29.00;21.40;;;;;;4977296;28;11536;-64
2022/03/27 12:55:19;;;;;;;;;16.00;16.00;29.20;22.40;;;;;;4977478;28;11452;-64
2022/03/27 12:57:59;;;;;;;;;12.25;12.25;29.70;21.20;;;;;;4966795;28;11479;-63